Time;durP1;ratioP1;P1;durP2;ratioP2;P2;SDS_P1;SDS_P2;PMS_P1;PMS_P2;Temp;Humidity;BMP_temperature;BMP_pressure;BME280_temperature;BME280_humidity;BME280_pressure;Samples;Min_cycle;Max_cycle;Signal;HPM_P1;HPM_P2
2023/09/12 00:03:46;;;;;;;;;;;;;;;20.22;100.00;95411.41;10498569;28;1910;-75
2023/09/12 00:08:48;;;;;;;;;;;;;;;20.47;100.00;95415.69;10484685;28;1384;-75
2023/09/12 00:13:51;;;;;;;;;;;;;;;20.04;100.00;95399.97;10496293;28;2277;-75
2023/09/12 00:18:53;;;;;;;;;;;;;;;19.78;100.00;95404.94;10498620;28;1584;-74
2023/09/12 00:23:56;;;;;;;;;;;;;;;19.85;100.00;95400.53;10484996;28;1886;-75
2023/09/12 00:28:58;;;;;;;;;;;;;;;19.76;100.00;95399.84;10488421;28;1474;-75
2023/09/12 00:34:01;;;;;;;;;;;;;;;19.69;100.00;95400.41;10495172;28;1499;-74
2023/09/12 00:39:03;;;;;;;;;;;;;;;19.58;100.00;95399.25;10483769;28;1435;-74
2023/09/12 00:44:06;;;;;;;;;;;;;;;19.22;100.00;95386.38;10479034;28;5356;-74
2023/09/12 00:49:08;;;;;;;;;;;;;;;19.02;100.00;95388.03;10469207;28;1694;-74
2023/09/12 00:54:10;;;;;;;;;;;;;;;18.86;100.00;95390.59;10480323;28;1697;-75
2023/09/12 00:59:13;;;;;;;;;;;;;;;18.76;100.00;95384.75;10478078;28;1942;-75
2023/09/12 01:04:15;;;;;;;;;;;;;;;18.64;100.00;95393.66;10479672;28;1902;-75
2023/09/12 01:09:35;;;;;;;;;;;;;;;18.67;100.00;95403.91;10476786;28;2341;-75
2023/09/12 01:14:38;;;;;;;;;;;;;;;18.78;100.00;95388.75;10492010;28;1657;-75
2023/09/12 01:19:40;;;;;;;;;;;;;;;18.81;100.00;95387.28;10485211;28;1696;-74
2023/09/12 01:24:43;;;;;;;;;;;;;;;18.72;100.00;95392.81;10476826;28;1914;-74
2023/09/12 01:29:45;;;;;;;;;;;;;;;18.87;100.00;95386.72;10475527;28;1629;-74
2023/09/12 01:34:48;;;;;;;;;;;;;;;18.72;100.00;95392.03;10485745;28;1641;-74
2023/09/12 01:39:50;;;;;;;;;;;;;;;18.76;100.00;95388.28;10477205;28;5051;-74
2023/09/12 01:44:52;;;;;;;;;;;;;;;18.62;100.00;95390.47;10480979;28;1918;-79
2023/09/12 01:49:55;;;;;;;;;;;;;;;18.46;100.00;95394.94;10490703;28;1529;-77
2023/09/12 01:54:57;;;;;;;;;;;;;;;18.21;100.00;95399.44;10485660;28;1497;-77
2023/09/12 02:00:00;;;;;;;;;;;;;;;18.27;100.00;95404.34;10496791;28;1958;-75
2023/09/12 02:05:02;;;;;;;;;;;;;;;19.12;100.00;95403.94;10470994;28;2334;-73
2023/09/12 02:10:05;;;;;;;;;;;;;;;18.73;100.00;95401.78;10479121;28;1554;-74
2023/09/12 02:15:07;;;;;;;;;;;;;;;18.40;100.00;95413.38;10490921;28;1442;-73
2023/09/12 02:20:11;;;;;;;;;;;;;;;18.16;100.00;95411.31;10474109;28;1550;-74
2023/09/12 02:25:13;;;;;;;;;;;;;;;18.01;100.00;95411.91;10471614;28;2053;-74
2023/09/12 02:30:16;;;;;;;;;;;;;;;17.85;100.00;95416.31;10472202;28;1619;-73
2023/09/12 02:35:19;;;;;;;;;;;;;;;17.80;100.00;95411.84;10493035;28;1676;-76
2023/09/12 02:40:21;;;;;;;;;;;;;;;17.68;100.00;95420.66;10479601;28;1634;-75
2023/09/12 02:45:23;;;;;;;;;;;;;;;17.60;100.00;95426.94;10495138;28;1957;-74
2023/09/12 02:50:26;;;;;;;;;;;;;;;17.54;100.00;95420.09;10472162;28;1788;-74
2023/09/12 02:55:28;;;;;;;;;;;;;;;17.49;100.00;95414.84;10462671;28;1647;-74
2023/09/12 03:00:31;;;;;;;;;;;;;;;17.47;100.00;95427.94;10474399;28;2306;-73
2023/09/12 03:05:33;;;;;;;;;;;;;;;17.40;100.00;95424.94;10482655;28;1918;-74
2023/09/12 03:10:36;;;;;;;;;;;;;;;17.39;100.00;95421.44;10471439;28;1643;-78
2023/09/12 03:15:38;;;;;;;;;;;;;;;17.38;100.00;95425.28;10490657;28;1389;-76
2023/09/12 03:20:41;;;;;;;;;;;;;;;17.26;100.00;95417.00;10480389;28;1450;-75
2023/09/12 03:25:43;;;;;;;;;;;;;;;17.38;100.00;95410.91;10478154;28;1924;-74
2023/09/12 03:30:46;;;;;;;;;;;;;;;17.25;100.00;95409.97;10485560;28;1480;-73
2023/09/12 03:35:48;;;;;;;;;;;;;;;17.22;100.00;95419.56;10472087;28;1528;-72
2023/09/12 03:40:51;;;;;;;;;;;;;;;17.17;100.00;95417.00;10478674;28;5072;-74
2023/09/12 03:45:53;;;;;;;;;;;;;;;17.11;100.00;95412.09;10474068;28;1985;-74
2023/09/12 03:50:56;;;;;;;;;;;;;;;16.99;100.00;95418.22;10479455;28;1547;-75
2023/09/12 03:55:58;;;;;;;;;;;;;;;16.99;100.00;95421.72;10483136;28;1496;-73
2023/09/12 04:01:01;;;;;;;;;;;;;;;16.95;100.00;95422.66;10480600;28;2659;-74
2023/09/12 04:06:03;;;;;;;;;;;;;;;16.96;100.00;95418.84;10480060;28;1973;-74
2023/09/12 04:11:06;;;;;;;;;;;;;;;17.00;100.00;95430.66;10489293;28;1502;-72
2023/09/12 04:16:08;;;;;;;;;;;;;;;16.91;100.00;95422.50;10490891;28;1427;-75
2023/09/12 04:21:11;;;;;;;;;;;;;;;16.88;100.00;95427.81;10492897;28;1639;-74
2023/09/12 04:26:13;;;;;;;;;;;;;;;16.80;100.00;95442.19;10488793;28;1953;-73
2023/09/12 04:31:16;;;;;;;;;;;;;;;16.78;100.00;95428.13;10488008;28;1573;-75
2023/09/12 04:36:18;;;;;;;;;;;;;;;16.82;100.00;95429.09;10490178;28;1500;-73
2023/09/12 04:41:21;;;;;;;;;;;;;;;16.80;100.00;95436.75;10486973;28;1527;-74
2023/09/12 04:46:23;;;;;;;;;;;;;;;17.06;100.00;95440.22;10477962;28;1894;-73
2023/09/12 04:51:27;;;;;;;;;;;;;;;16.97;100.00;95434.00;10494614;28;1473;-74
2023/09/12 04:56:29;;;;;;;;;;;;;;;16.97;100.00;95434.00;10488039;28;2412;-74
2023/09/12 05:01:32;;;;;;;;;;;;;;;17.02;100.00;95425.69;10489806;28;1506;-73
2023/09/12 05:06:34;;;;;;;;;;;;;;;17.10;100.00;95429.50;10492062;28;1975;-77
2023/09/12 05:11:37;;;;;;;;;;;;;;;17.11;100.00;95434.59;10473144;28;1423;-75
2023/09/12 05:16:40;;;;;;;;;;;;;;;17.23;100.00;95434.72;10481861;28;1460;-76
2023/09/12 05:21:42;;;;;;;;;;;;;;;17.62;100.00;95434.75;10490568;28;1488;-75
2023/09/12 05:26:45;;;;;;;;;;;;;;;17.93;100.00;95445.34;10495758;28;1890;-75
2023/09/12 05:31:47;;;;;;;;;;;;;;;18.12;100.00;95439.50;10494054;28;1426;-75
2023/09/12 05:36:50;;;;;;;;;;;;;;;18.53;100.00;95441.47;10492345;28;1537;-75
2023/09/12 05:41:52;;;;;;;;;;;;;;;18.84;100.00;95432.91;10481191;28;5229;-74
2023/09/12 05:46:54;;;;;;;;;;;;;;;18.87;100.00;95430.31;10490778;28;1882;-74
2023/09/12 05:51:57;;;;;;;;;;;;;;;19.12;100.00;95433.91;10483131;28;1620;-75
2023/09/12 05:56:59;;;;;;;;;;;;;;;19.25;100.00;95439.38;10488372;28;1528;-74
2023/09/12 06:02:02;;;;;;;;;;;;;;;19.41;100.00;95432.97;10487351;28;1482;-74
2023/09/12 06:07:05;;;;;;;;;;;;;;;19.69;100.00;95433.13;10480508;28;1949;-77
2023/09/12 06:12:07;;;;;;;;;;;;;;;19.89;100.00;95431.44;10500315;28;1349;-76
2023/09/12 06:17:10;;;;;;;;;;;;;;;20.15;100.00;95431.06;10490438;28;1622;-77
2023/09/12 06:22:12;;;;;;;;;;;;;;;20.39;100.00;95448.56;10470355;28;1713;-74
2023/09/12 06:27:18;;;;;;;;;;;;;;;20.49;100.00;95438.00;10483917;28;1977;-76
2023/09/12 06:32:21;;;;;;;;;;;;;;;20.65;100.00;95429.06;10493309;28;1493;-72
2023/09/12 06:37:23;;;;;;;;;;;;;;;20.60;100.00;95435.56;10481551;28;1501;-72
2023/09/12 06:42:26;;;;;;;;;;;;;;;20.91;100.00;95432.16;10485235;28;5146;-72
2023/09/12 06:47:28;;;;;;;;;;;;;;;21.08;100.00;95430.28;10489718;28;1914;-72
2023/09/12 06:52:31;;;;;;;;;;;;;;;21.08;100.00;95442.00;10481140;28;1454;-73
2023/09/12 06:57:33;;;;;;;;;;;;;;;21.41;100.00;95433.53;10487069;28;1577;-72
2023/09/12 07:02:36;;;;;;;;;;;;;;;21.77;100.00;95439.94;10480465;28;1517;-71
2023/09/12 07:07:38;;;;;;;;;;;;;;;22.13;100.00;95431.44;10479821;28;1902;-72
2023/09/12 07:12:40;;;;;;;;;;;;;;;22.29;100.00;95436.09;10486233;28;1489;-73
2023/09/12 07:17:43;;;;;;;;;;;;;;;22.43;100.00;95443.84;10484455;28;1463;-75
2023/09/12 07:22:46;;;;;;;;;;;;;;;22.66;100.00;95451.03;10488009;28;1369;-71
2023/09/12 07:27:48;;;;;;;;;;;;;;;22.70;100.00;95451.09;10496347;28;1910;-75
2023/09/12 07:32:53;;;;;;;;;;;;;;;22.96;100.00;95444.19;10491815;28;1328;-77
2023/09/12 07:38:09;;;;;;;;;;;;;;;23.24;100.00;95444.00;10478935;28;1679;-73
2023/09/12 07:43:16;;;;;;;;;;;;;;;23.40;100.00;95447.41;10476552;28;5079;-77
2023/09/12 07:48:28;;;;;;;;;;;;;;;23.53;100.00;95454.31;10469596;28;1981;-78
2023/09/12 07:53:47;;;;;;;;;;;;;;;23.62;100.00;95454.91;10461071;28;1514;-77
2023/09/12 07:58:58;;;;;;;;;;;;;;;23.70;100.00;95453.09;10482151;28;1498;-78
2023/09/12 08:04:07;;;;;;;;;;;;;;;24.04;100.00;95454.03;10458890;28;1957;-81
2023/09/12 08:09:21;;;;;;;;;;;;;;;23.90;100.00;95456.56;10458918;28;1522;-78
2023/09/12 08:14:27;;;;;;;;;;;;;;;24.22;100.00;95454.31;10469758;28;1474;-76
2023/09/12 08:19:35;;;;;;;;;;;;;;;24.52;100.00;95454.41;10488304;28;1517;-77
2023/09/12 08:24:42;;;;;;;;;;;;;;;25.00;100.00;95443.66;10441786;28;1906;-75
2023/09/12 08:29:54;;;;;;;;;;;;;;;25.17;100.00;95453.31;10482485;28;1514;-74
2023/09/12 08:35:11;;;;;;;;;;;;;;;25.27;100.00;95447.94;10437525;28;1516;-81
2023/09/12 08:40:17;;;;;;;;;;;;;;;25.63;100.00;95453.03;10468978;28;5228;-78
2023/09/12 08:45:21;;;;;;;;;;;;;;;25.70;100.00;95450.34;10478637;28;1978;-74
2023/09/12 08:50:25;;;;;;;;;;;;;;;26.08;100.00;95446.38;10451949;28;1478;-73
2023/09/12 08:55:38;;;;;;;;;;;;;;;26.32;100.00;95440.25;10445017;28;1529;-73
2023/09/12 09:00:50;;;;;;;;;;;;;;;26.56;100.00;95441.63;10480460;28;1373;-74
2023/09/12 09:05:54;;;;;;;;;;;;;;;26.39;100.00;95443.06;10461661;28;1910;-71
2023/09/12 09:10:57;;;;;;;;;;;;;;;26.39;100.00;95437.56;10474402;28;1429;-74
2023/09/12 09:16:01;;;;;;;;;;;;;;;26.19;100.00;95436.22;10466103;28;1493;-75
2023/09/12 09:21:07;;;;;;;;;;;;;;;26.77;100.00;95427.16;10457115;28;1457;-75
2023/09/12 09:26:10;;;;;;;;;;;;;;;26.84;100.00;95421.69;10462765;28;1983;-79
2023/09/12 09:31:18;;;;;;;;;;;;;;;26.80;100.00;95423.66;10443250;28;1520;-76
2023/09/12 09:36:22;;;;;;;;;;;;;;;27.11;100.00;95425.00;10477886;28;2312;-75
2023/09/12 09:41:29;;;;;;;;;;;;;;;27.37;100.00;95421.13;10439341;28;5202;-75
2023/09/12 09:46:34;;;;;;;;;;;;;;;27.31;100.00;95417.19;10466193;28;1987;-76
2023/09/12 09:51:41;;;;;;;;;;;;;;;27.54;100.00;95413.28;10483409;28;1507;-78
2023/09/12 09:56:48;;;;;;;;;;;;;;;27.36;100.00;95414.03;10453590;28;1539;-77
2023/09/12 10:01:52;;;;;;;;;;;;;;;27.34;100.00;95410.88;10443799;28;1493;-78
2023/09/12 10:06:57;;;;;;;;;;;;;;;27.29;100.00;95404.94;10465736;28;1910;-78
2023/09/12 10:11:59;;;;;;;;;;;;;;;27.30;100.00;95403.78;10456996;28;1513;-79
2023/09/12 10:17:05;;;;;;;;;;;;;;;27.32;100.00;95410.47;10469122;28;1645;-80
2023/09/12 10:22:15;;;;;;;;;;;;;;;27.21;100.00;95398.63;10472590;28;1324;-79
2023/09/12 10:27:26;;;;;;;;;;;;;;;27.41;100.00;95394.31;10446061;28;1917;-77
2023/09/12 10:32:35;;;;;;;;;;;;;;;27.73;100.00;95393.59;10478307;28;2338;-79
2023/09/12 10:37:41;;;;;;;;;;;;;;;27.66;100.00;95388.03;10452046;28;1517;-79
2023/09/12 10:42:49;;;;;;;;;;;;;;;27.77;100.00;95394.41;10449734;28;5241;-82
2023/09/12 10:47:54;;;;;;;;;;;;;;;27.85;97.11;95384.16;10472359;28;1975;-79
2023/09/12 10:52:57;;;;;;;;;;;;;;;27.84;100.00;95379.81;10452860;28;1545;-81
2023/09/12 10:58:00;;;;;;;;;;;;;;;27.55;100.00;95388.06;10462542;28;1565;-80
2023/09/12 11:03:06;;;;;;;;;;;;;;;28.25;99.42;95385.72;10472145;28;1637;-79
2023/09/12 11:08:18;;;;;;;;;;;;;;;28.32;95.45;95380.19;10471682;28;1910;-78
2023/09/12 11:13:23;;;;;;;;;;;;;;;28.22;89.96;95383.72;10460871;28;1948;-79
2023/09/12 11:18:27;;;;;;;;;;;;;;;28.32;89.59;95377.44;10432663;28;1725;-77
2023/09/12 11:23:31;;;;;;;;;;;;;;;28.41;92.11;95383.34;10462293;28;1600;-79
2023/09/12 11:28:35;;;;;;;;;;;;;;;28.65;86.37;95383.69;10476355;28;2422;-81
2023/09/12 11:33:40;;;;;;;;;;;;;;;28.62;92.21;95379.72;10452022;28;1382;-82
2023/09/12 11:38:45;;;;;;;;;;;;;;;28.54;89.34;95367.09;10484041;28;1575;-80
2023/09/12 11:43:54;;;;;;;;;;;;;;;28.82;77.90;95369.00;10456679;28;1554;-84
2023/09/12 11:48:58;;;;;;;;;;;;;;;29.08;81.14;95362.97;10451830;28;2001;-81
2023/09/12 11:54:04;;;;;;;;;;;;;;;29.06;84.74;95365.34;10443491;28;1327;-79
2023/09/12 11:59:09;;;;;;;;;;;;;;;28.84;89.03;95355.56;10471515;28;1496;-81
2023/09/12 12:04:17;;;;;;;;;;;;;;;29.18;76.04;95350.25;10467398;28;1447;-82
2023/09/12 12:09:21;;;;;;;;;;;;;;;29.49;72.39;95354.03;10446463;28;1918;-86
2023/09/12 12:14:26;;;;;;;;;;;;;;;29.27;73.81;95347.06;10465402;28;1450;-87
2023/09/12 12:19:30;;;;;;;;;;;;;;;29.70;69.67;95349.53;10467924;28;1603;-86
2023/09/12 12:24:38;;;;;;;;;;;;;;;29.34;70.07;95349.78;10448786;28;2230;-79
2023/09/12 12:29:43;;;;;;;;;;;;;;;29.23;73.21;95338.78;10469855;28;1898;-89
2023/09/12 12:34:51;;;;;;;;;;;;;;;29.28;75.13;95329.25;10472027;28;1516;-85
2023/09/12 12:40:19;;;;;;;;;;;;;;;28.79;79.72;95325.53;10481131;28;5255;-80
2023/09/12 12:45:24;;;;;;;;;;;;;;;29.00;82.04;95324.66;10453789;28;1910;-80
2023/09/12 12:50:29;;;;;;;;;;;;;;;28.82;82.99;95330.28;10468337;28;2119;-82
2023/09/12 12:55:35;;;;;;;;;;;;;;;28.76;89.49;95323.59;10448532;28;1889;-85
2023/09/12 13:00:39;;;;;;;;;;;;;;;28.80;84.90;95313.28;10475696;28;2137;-84
2023/09/12 13:22:01;;;;;;;;;;;;;;;28.77;68.66;95289.19;10460781;28;2545;-85
2023/09/12 13:27:07;;;;;;;;;;;;;;;28.78;73.67;95285.25;10467620;28;2048;-85
2023/09/12 13:32:35;;;;;;;;;;;;;;;28.77;68.29;95281.69;10476084;28;1919;-84
2023/09/12 13:37:40;;;;;;;;;;;;;;;28.92;71.31;95279.66;10463245;28;1977;-84
2023/09/12 13:42:43;;;;;;;;;;;;;;;28.81;72.85;95276.91;10448623;28;5406;-84
2023/09/12 13:47:49;;;;;;;;;;;;;;;28.66;74.18;95269.09;10436869;28;1925;-86
2023/09/12 13:52:59;;;;;;;;;;;;;;;28.71;70.41;95268.69;10449844;28;2091;-85
2023/09/12 13:58:13;;;;;;;;;;;;;;;28.74;76.32;95263.13;10461666;28;2071;-85
2023/09/12 14:03:29;;;;;;;;;;;;;;;28.52;80.72;95262.44;10476826;28;2176;-84
2023/09/12 14:08:40;;;;;;;;;;;;;;;28.29;79.88;95260.13;10467663;28;2016;-84
2023/09/12 14:13:53;;;;;;;;;;;;;;;28.33;79.75;95264.91;10462463;28;2200;-84
2023/09/12 14:19:20;;;;;;;;;;;;;;;28.11;90.33;95270.44;10456602;28;2299;-82
2023/09/12 14:24:30;;;;;;;;;;;;;;;27.91;93.11;95264.59;10451859;28;2016;-84
2023/09/12 14:29:48;;;;;;;;;;;;;;;27.76;92.79;95265.81;10447610;28;1988;-83
2023/09/12 14:35:00;;;;;;;;;;;;;;;27.81;94.88;95257.13;10468655;28;1935;-85
2023/09/12 14:40:04;;;;;;;;;;;;;;;27.72;97.36;95265.78;10474654;28;4745;-84
2023/09/12 14:45:09;;;;;;;;;;;;;;;27.59;99.59;95272.09;10477483;28;1974;-82
2023/09/12 14:50:23;;;;;;;;;;;;;;;27.78;99.62;95252.38;10484524;28;2089;-82
2023/09/12 14:55:46;;;;;;;;;;;;;;;28.06;98.11;95262.59;10463471;28;2157;-85
2023/09/12 15:01:11;;;;;;;;;;;;;;;28.16;97.13;95260.97;10464850;28;2066;-82
2023/09/12 15:06:25;;;;;;;;;;;;;;;28.13;97.21;95256.25;10463290;28;2008;-84
2023/09/12 15:11:32;;;;;;;;;;;;;;;27.91;97.52;95256.28;10442635;28;2651;-84
2023/09/12 15:16:47;;;;;;;;;;;;;;;27.74;97.91;95273.72;10466328;28;2066;-84
2023/09/12 15:27:13;;;;;;;;;;;;;;;27.62;98.59;95279.59;10444145;28;2035;-85
2023/09/12 15:32:17;;;;;;;;;;;;;;;27.65;99.44;95270.50;10473677;28;1973;-86
2023/09/12 15:37:44;;;;;;;;;;;;;;;27.34;100.00;95272.09;10450348;28;1899;-83
2023/09/12 15:43:02;;;;;;;;;;;;;;;27.27;100.00;95266.56;10457016;28;1911;-87
2023/09/12 15:48:34;;;;;;;;;;;;;;;27.03;100.00;95268.09;10489218;28;1902;-93
2023/09/12 15:53:40;;;;;;;;;;;;;;;26.85;100.00;95273.59;10473711;28;1781;-90
2023/09/12 15:58:47;;;;;;;;;;;;;;;26.80;100.00;95263.72;10487117;28;2447;-78
2023/09/12 16:03:58;;;;;;;;;;;;;;;26.70;100.00;95260.94;10462712;28;1497;-81
2023/09/12 16:09:05;;;;;;;;;;;;;;;26.59;100.00;95266.41;10493069;28;1979;-80
2023/09/12 16:14:28;;;;;;;;;;;;;;;26.45;100.00;95253.38;10474632;28;1856;-80
2023/09/12 16:19:35;;;;;;;;;;;;;;;26.40;100.00;95256.50;10459004;28;1562;-81
2023/09/12 16:24:44;;;;;;;;;;;;;;;26.34;100.00;95250.56;10445512;28;1477;-87
2023/09/12 16:29:57;;;;;;;;;;;;;;;26.31;100.00;95248.56;10480679;28;1906;-83
2023/09/12 16:35:10;;;;;;;;;;;;;;;26.28;100.00;95246.59;10483827;28;1477;-81
2023/09/12 16:40:22;;;;;;;;;;;;;;;26.08;100.00;95246.13;10462538;28;4734;-79
2023/09/12 16:45:50;;;;;;;;;;;;;;;25.87;100.00;95249.53;10477060;28;2446;-78
2023/09/12 16:50:54;;;;;;;;;;;;;;;25.70;100.00;95261.19;10455225;28;2023;-78
2023/09/12 16:56:01;;;;;;;;;;;;;;;25.50;100.00;95268.13;10477068;28;1521;-85
2023/09/12 17:01:07;;;;;;;;;;;;;;;25.34;100.00;95276.66;10484144;28;1759;-82
2023/09/12 17:06:13;;;;;;;;;;;;;;;25.20;100.00;95288.34;10480131;28;1906;-77
2023/09/12 17:11:24;;;;;;;;;;;;;;;25.03;100.00;95291.69;10457547;28;1465;-78
2023/09/12 17:16:27;;;;;;;;;;;;;;;24.84;100.00;95291.88;10473160;28;1953;-77
2023/09/12 17:21:32;;;;;;;;;;;;;;;24.85;100.00;95287.97;10467493;28;1640;-84
2023/09/12 17:26:40;;;;;;;;;;;;;;;24.64;100.00;95283.03;10491118;28;1922;-81
2023/09/12 17:31:55;;;;;;;;;;;;;;;24.53;100.00;95296.63;10483017;28;2582;-76
2023/09/12 17:37:02;;;;;;;;;;;;;;;24.60;100.00;95315.94;10455381;28;1891;-75
2023/09/12 17:42:21;;;;;;;;;;;;;;;24.47;100.00;95334.63;10470094;28;4721;-73
2023/09/12 17:47:26;;;;;;;;;;;;;;;24.32;100.00;95352.06;10448689;28;1995;-72
2023/09/12 17:52:29;;;;;;;;;;;;;;;24.23;100.00;95387.25;10455227;28;1844;-70
2023/09/12 17:57:33;;;;;;;;;;;;;;;24.23;100.00;95393.53;10443825;28;1891;-73
2023/09/12 18:02:36;;;;;;;;;;;;;;;24.25;100.00;95404.97;10451405;28;1994;-71
2023/09/12 18:07:39;;;;;;;;;;;;;;;24.28;100.00;95417.94;10438622;28;1922;-72
2023/09/12 18:12:45;;;;;;;;;;;;;;;24.37;100.00;95414.19;10447556;28;1596;-72
2023/09/12 18:17:50;;;;;;;;;;;;;;;24.39;100.00;95415.38;10448426;28;1481;-72
2023/09/12 18:22:58;;;;;;;;;;;;;;;24.28;100.00;95415.19;10431056;28;1628;-73
2023/09/12 18:28:01;;;;;;;;;;;;;;;24.37;100.00;95427.91;10461527;28;1926;-72
2023/09/12 18:33:05;;;;;;;;;;;;;;;24.34;100.00;95439.63;10453610;28;2521;-72
2023/09/12 18:38:10;;;;;;;;;;;;;;;24.10;100.00;95449.81;10444553;28;1779;-72
2023/09/12 18:43:15;;;;;;;;;;;;;;;23.90;100.00;95440.09;10450664;28;4910;-73
2023/09/12 18:48:21;;;;;;;;;;;;;;;23.84;100.00;95425.09;10465796;28;1921;-72
2023/09/12 18:53:25;;;;;;;;;;;;;;;23.90;100.00;95435.38;10451246;28;1528;-72
2023/09/12 18:58:31;;;;;;;;;;;;;;;23.84;100.00;95417.63;10445823;28;1574;-71
2023/09/12 19:03:40;;;;;;;;;;;;;;;23.45;100.00;95400.50;10474559;28;2137;-74
2023/09/12 19:08:44;;;;;;;;;;;;;;;23.10;100.00;95385.00;10456944;28;1911;-73
2023/09/12 19:13:51;;;;;;;;;;;;;;;22.87;100.00;95373.19;10426490;28;1944;-72
2023/09/12 19:18:57;;;;;;;;;;;;;;;22.73;100.00;95362.69;10445426;28;1566;-73
2023/09/12 19:24:04;;;;;;;;;;;;;;;22.60;100.00;95345.63;10462263;28;1505;-71
2023/09/12 19:29:13;;;;;;;;;;;;;;;22.55;100.00;95356.84;10463723;28;1934;-74
2023/09/12 19:34:16;;;;;;;;;;;;;;;22.37;100.00;95356.47;10430609;28;1744;-74
2023/09/12 19:39:21;;;;;;;;;;;;;;;22.23;100.00;95360.88;10462612;28;1557;-73
2023/09/12 19:44:28;;;;;;;;;;;;;;;22.12;100.00;95358.69;10476745;28;4630;-74
2023/09/12 19:49:32;;;;;;;;;;;;;;;22.06;100.00;95362.03;10428639;28;1906;-73
2023/09/12 19:54:35;;;;;;;;;;;;;;;22.12;100.00;95375.09;10454658;28;1486;-73
2023/09/12 19:59:42;;;;;;;;;;;;;;;22.09;100.00;95372.31;10435179;28;2543;-73
2023/09/12 20:04:45;;;;;;;;;;;;;;;22.13;100.00;95382.16;10446465;28;1579;-76
2023/09/12 20:09:48;;;;;;;;;;;;;;;22.23;100.00;95377.31;10450791;28;6434;-76
2023/09/12 20:14:54;;;;;;;;;;;;;;;22.12;100.00;95366.09;10468647;28;5525;-71
2023/09/12 20:19:57;;;;;;;;;;;;;;;22.02;100.00;95367.44;10455486;28;1563;-72
2023/09/12 20:25:00;;;;;;;;;;;;;;;22.04;100.00;95367.06;10466959;28;5425;-71
2023/09/12 20:30:03;;;;;;;;;;;;;;;22.06;100.00;95384.72;10472535;28;1989;-69
2023/09/12 20:35:08;;;;;;;;;;;;;;;21.76;100.00;95405.53;10452588;28;1509;-72
2023/09/12 20:40:11;;;;;;;;;;;;;;;21.74;100.00;95407.78;10467176;28;1925;-73
2023/09/12 20:45:14;;;;;;;;;;;;;;;21.48;100.00;95406.38;10469154;28;5323;-72
2023/09/12 20:50:25;;;;;;;;;;;;;;;21.54;100.00;95410.44;10452058;28;1918;-71
2023/09/12 20:55:29;;;;;;;;;;;;;;;21.25;100.00;95408.13;10467916;28;1536;-75
2023/09/12 21:00:34;;;;;;;;;;;;;;;21.25;100.00;95397.97;10462943;28;1415;-74
2023/09/12 21:05:39;;;;;;;;;;;;;;;21.33;100.00;95396.25;10470625;28;1798;-75
2023/09/12 21:10:46;;;;;;;;;;;;;;;21.10;100.00;95395.19;10436704;28;1993;-74
2023/09/12 21:15:51;;;;;;;;;;;;;;;20.82;100.00;95395.22;10472426;28;4819;-72
2023/09/12 21:20:54;;;;;;;;;;;;;;;20.90;100.00;95413.41;10448882;28;1775;-74
2023/09/12 21:26:01;;;;;;;;;;;;;;;20.79;100.00;95393.97;10451655;28;2658;-73
2023/09/12 21:31:05;;;;;;;;;;;;;;;20.85;100.00;95394.53;10431892;28;1979;-72
2023/09/12 21:36:09;;;;;;;;;;;;;;;20.75;100.00;95409.47;10473294;28;1929;-74
2023/09/12 21:41:20;;;;;;;;;;;;;;;20.38;100.00;95409.56;10456880;28;1974;-71
2023/09/12 21:46:25;;;;;;;;;;;;;;;20.31;100.00;95419.47;10467788;28;1891;-73
2023/09/12 21:51:29;;;;;;;;;;;;;;;20.56;100.00;95414.78;10455919;28;1984;-73
2023/09/12 21:56:32;;;;;;;;;;;;;;;20.67;100.00;95404.94;10441683;28;2026;-74
2023/09/12 22:01:36;;;;;;;;;;;;;;;20.79;100.00;95396.69;10465685;28;1894;-73
2023/09/12 22:06:39;;;;;;;;;;;;;;;20.77;100.00;95407.19;10442189;28;1911;-72
2023/09/12 22:11:45;;;;;;;;;;;;;;;20.61;100.00;95414.50;10448161;28;2555;-73
2023/09/12 22:16:49;;;;;;;;;;;;;;;20.27;100.00;95419.34;10465306;28;5135;-71
2023/09/12 22:21:55;;;;;;;;;;;;;;;20.14;100.00;95428.69;10449285;28;1910;-72
2023/09/12 22:27:01;;;;;;;;;;;;;;;19.81;100.00;95420.66;10449214;28;1911;-74
2023/09/12 22:32:10;;;;;;;;;;;;;;;19.69;100.00;95424.94;10459785;28;1979;-74
2023/09/12 22:37:14;;;;;;;;;;;;;;;19.61;100.00;95422.34;10455786;28;2126;-73
2023/09/12 22:42:21;;;;;;;;;;;;;;;19.58;100.00;95426.53;10452801;28;2146;-72
2023/09/12 22:47:32;;;;;;;;;;;;;;;19.48;100.00;95418.00;10435709;28;1974;-72
2023/09/12 22:52:36;;;;;;;;;;;;;;;19.44;100.00;95426.81;10442227;28;2208;-73
2023/09/12 22:57:47;;;;;;;;;;;;;;;19.33;100.00;95441.22;10457214;28;2494;-71
2023/09/12 23:02:55;;;;;;;;;;;;;;;19.30;100.00;95445.44;10442130;28;1911;-73
2023/09/12 23:07:59;;;;;;;;;;;;;;;19.32;100.00;95448.59;10449224;28;1919;-72
2023/09/12 23:13:04;;;;;;;;;;;;;;;19.37;100.00;95442.94;10475829;28;1906;-73
2023/09/12 23:18:08;;;;;;;;;;;;;;;19.33;100.00;95450.19;10442560;28;5142;-72
2023/09/12 23:23:13;;;;;;;;;;;;;;;19.50;100.00;95445.69;10460575;28;1903;-73
2023/09/12 23:28:17;;;;;;;;;;;;;;;19.66;100.00;95452.13;10447964;28;1942;-72
2023/09/12 23:33:20;;;;;;;;;;;;;;;20.08;100.00;95440.97;10461152;28;1970;-71
2023/09/12 23:38:23;;;;;;;;;;;;;;;20.11;100.00;95438.38;10459156;28;1907;-71
2023/09/12 23:43:31;;;;;;;;;;;;;;;20.24;100.00;95458.25;10463190;28;2543;-73
2023/09/12 23:48:38;;;;;;;;;;;;;;;20.05;100.00;95458.84;10463734;28;1984;-74
2023/09/12 23:53:42;;;;;;;;;;;;;;;20.18;100.00;95456.91;10426138;28;1899;-77
2023/09/12 23:58:48;;;;;;;;;;;;;;;20.31;100.00;95463.94;10462253;28;1914;-75
